createdAt,value
2018-09-01T00:00:53.718Z,15.10
2018-09-01T00:03:23.178Z,14.67
2018-09-01T00:05:52.522Z,15.38
2018-09-01T00:08:22.087Z,14.67
2018-09-01T00:10:51.694Z,15.90
2018-09-01T00:13:21.102Z,16.42
2018-09-01T00:15:50.747Z,16.05
2018-09-01T00:18:20.824Z,15.90
2018-09-01T00:20:50.739Z,16.53
2018-09-01T00:23:20.106Z,17.40
2018-09-01T00:25:49.340Z,15.60
2018-09-01T00:28:18.658Z,17.97
2018-09-01T00:30:47.986Z,17.70
2018-09-01T00:33:17.548Z,16.45
2018-09-01T00:35:46.676Z,17.37
2018-09-01T00:38:21.440Z,16.67
2018-09-01T00:40:50.453Z,16.13
2018-09-01T00:43:19.382Z,16.27
2018-09-01T00:45:48.968Z,16.40
2018-09-01T00:48:17.998Z,16.23
2018-09-01T00:50:47.427Z,16.73
2018-09-01T00:53:17.034Z,14.57
2018-09-01T00:55:46.783Z,14.67
2018-09-01T00:58:16.083Z,14.33
2018-09-01T01:00:45.132Z,14.63
2018-09-01T01:03:14.414Z,13.53
2018-09-01T01:05:43.985Z,15.03
2018-09-01T01:08:12.998Z,13.67
2018-09-01T01:10:42.585Z,13.20
2018-09-01T01:13:12.194Z,13.80
2018-09-01T01:15:41.226Z,13.77
2018-09-01T01:18:10.654Z,14.23
2018-09-01T01:20:39.838Z,13.43
2018-09-01T01:23:09.087Z,14.00
2018-09-01T01:25:38.099Z,13.83
2018-09-01T01:28:07.431Z,13.37
2018-09-01T01:30:36.989Z,13.97
2018-09-01T01:33:06.596Z,16.43
2018-09-01T01:35:35.914Z,14.67
2018-09-01T01:38:04.938Z,13.80
2018-09-01T01:40:34.214Z,12.50
2018-09-01T01:43:03.800Z,14.50
2018-09-01T01:45:33.179Z,12.50
2018-09-01T01:48:02.566Z,12.97
2018-09-01T01:50:32.027Z,13.37
2018-09-01T01:53:01.615Z,13.57
2018-09-01T01:55:31.544Z,12.50
2018-09-01T01:58:00.847Z,13.10
2018-09-01T02:00:30.154Z,11.37
2018-09-01T02:02:59.477Z,11.20
2018-09-01T02:05:31.111Z,11.43
2018-09-01T02:08:00.559Z,10.53
2018-09-01T02:10:30.370Z,11.67
2018-09-01T02:12:59.743Z,10.87
2018-09-01T02:15:29.074Z,11.13
2018-09-01T02:17:58.613Z,10.78
2018-09-01T02:20:27.945Z,11.53
2018-09-01T02:22:57.521Z,10.90
2018-09-01T02:25:26.541Z,13.55
2018-09-01T02:27:56.394Z,11.60
2018-09-01T02:30:26.343Z,11.40
2018-09-01T02:32:55.798Z,11.00
2018-09-01T02:35:25.727Z,10.43
2018-09-01T02:37:55.780Z,10.40
2018-09-01T02:40:25.116Z,11.20
2018-09-01T02:42:54.406Z,10.60
2018-09-01T02:45:23.715Z,10.90
2018-09-01T02:47:52.716Z,11.67
2018-09-01T02:50:22.285Z,11.90
2018-09-01T02:52:51.854Z,11.47
2018-09-01T02:55:21.302Z,13.90
2018-09-01T02:57:50.800Z,12.40
2018-09-01T03:00:25.321Z,14.00
2018-09-01T03:02:54.370Z,15.00
2018-09-01T03:05:23.925Z,13.43
2018-09-01T03:07:52.990Z,12.50
2018-09-01T03:10:22.485Z,13.87
2018-09-01T03:12:51.530Z,13.50
2018-09-01T03:15:20.530Z,12.20
2018-09-01T03:17:50.117Z,12.00
2018-09-01T03:20:19.438Z,12.53
2018-09-01T03:22:48.478Z,12.87
2018-09-01T03:25:17.632Z,12.93
2018-09-01T03:27:46.987Z,11.80
2018-09-01T03:30:16.482Z,11.10
2018-09-01T03:32:46.227Z,12.37
2018-09-01T03:35:15.582Z,10.40
2018-09-01T03:37:44.579Z,11.13
2018-09-01T03:40:14.435Z,11.80
2018-09-01T03:42:43.450Z,12.07
2018-09-01T03:45:12.730Z,11.67
2018-09-01T03:47:41.771Z,10.63
2018-09-01T03:50:11.058Z,11.20
2018-09-01T03:52:40.342Z,11.73
2018-09-01T03:55:09.739Z,11.90
2018-09-01T03:57:39.254Z,12.13
2018-09-01T04:00:08.328Z,11.57
2018-09-01T04:02:37.998Z,11.57
2018-09-01T04:05:07.919Z,11.17
2018-09-01T04:07:37.071Z,10.80
2018-09-01T04:10:07.270Z,11.13
2018-09-01T04:12:37.188Z,15.03
2018-09-01T04:15:06.859Z,12.07
2018-09-01T04:17:35.846Z,13.70
2018-09-01T04:20:05.091Z,13.33
2018-09-01T04:22:34.099Z,14.77
2018-09-01T04:25:03.380Z,14.27
2018-09-01T04:27:32.441Z,16.63
2018-09-01T04:30:01.993Z,15.10
2018-09-01T04:32:31.006Z,14.30
2018-09-01T04:35:00.583Z,13.78
2018-09-01T04:37:30.191Z,13.10
2018-09-01T04:39:59.520Z,13.93
2018-09-01T04:42:29.405Z,14.30
2018-09-01T04:44:59.015Z,13.67
2018-09-01T04:47:28.060Z,14.07
2018-09-01T04:49:57.479Z,14.83
2018-09-01T04:52:26.958Z,15.37
2018-09-01T04:54:56.851Z,14.17
2018-09-01T04:57:26.162Z,15.43
2018-09-01T04:59:55.738Z,18.37
2018-09-01T05:02:25.082Z,16.60
2018-09-01T05:04:54.647Z,14.80
2018-09-01T05:07:23.806Z,15.13
2018-09-01T05:09:53.007Z,14.90
2018-09-01T05:12:25.743Z,14.97
2018-09-01T05:14:55.285Z,15.75
2018-09-01T05:17:24.835Z,14.90
2018-09-01T05:19:54.444Z,13.50
2018-09-01T05:22:23.492Z,14.30
2018-09-01T05:24:53.042Z,13.53
2018-09-01T05:27:22.094Z,16.03
2018-09-01T05:29:51.643Z,15.38
2018-09-01T05:32:21.874Z,15.43
2018-09-01T05:34:51.783Z,15.37
2018-09-01T05:37:21.136Z,14.38
2018-09-01T05:39:50.446Z,14.37
2018-09-01T05:42:19.371Z,14.20
2018-09-01T05:44:48.298Z,15.38
2018-09-01T05:47:17.247Z,16.00
2018-09-01T05:49:46.179Z,13.57
2018-09-01T05:52:15.130Z,13.98
2018-09-01T05:54:44.341Z,13.62
2018-09-01T05:57:13.295Z,14.80
2018-09-01T05:59:42.249Z,11.70
2018-09-01T06:02:11.628Z,12.60
2018-09-01T06:04:40.550Z,12.90
2018-09-01T06:07:09.562Z,12.57
2018-09-01T06:09:38.737Z,13.43
2018-09-01T06:12:07.670Z,14.63
2018-09-01T06:14:36.572Z,12.27
2018-09-01T06:17:06.026Z,13.30
2018-09-01T06:19:34.938Z,17.57
2018-09-01T06:22:03.843Z,23.63
2018-09-01T06:24:32.793Z,26.95
2018-09-01T06:27:05.015Z,27.83
2018-09-01T06:29:34.059Z,30.33
2018-09-01T06:32:04.670Z,25.90
2018-09-01T06:34:33.587Z,26.17
2018-09-01T06:37:02.499Z,20.03
2018-09-01T06:39:31.479Z,19.10
2018-09-01T06:42:00.383Z,20.30
2018-09-01T06:44:29.519Z,25.57
2018-09-01T06:46:59.036Z,48.10
2018-09-01T06:49:28.437Z,46.27
2018-09-01T06:51:58.326Z,46.97
2018-09-01T06:54:27.551Z,43.33
2018-09-01T06:56:57.494Z,29.93
2018-09-01T06:59:27.385Z,21.10
2018-09-01T07:01:56.988Z,17.77
2018-09-01T07:04:26.456Z,13.13
2018-09-01T07:06:55.932Z,16.23
2018-09-01T07:09:24.988Z,12.00
2018-09-01T07:11:54.218Z,13.27
2018-09-01T07:14:23.523Z,10.00
2018-09-01T07:16:52.818Z,10.80
2018-09-01T07:19:22.226Z,10.50
2018-09-01T07:21:51.427Z,10.47
2018-09-01T07:24:20.442Z,11.97
2018-09-01T07:26:50.300Z,9.97
2018-09-01T07:29:19.655Z,12.03
2018-09-01T07:31:48.802Z,9.70
2018-09-01T07:34:17.947Z,9.00
2018-09-01T07:36:51.206Z,8.50
2018-09-01T07:39:22.750Z,7.50
2018-09-01T07:41:57.830Z,7.83
2018-09-01T07:44:27.911Z,7.17
2018-09-01T07:46:57.134Z,10.03
2018-09-01T07:49:26.783Z,5.83
2018-09-01T07:51:59.122Z,5.47
2018-09-01T07:54:30.250Z,5.43
2018-09-01T07:57:06.836Z,4.43
2018-09-01T07:59:35.819Z,6.77
2018-09-01T08:02:04.814Z,4.70
2018-09-01T08:04:35.611Z,5.03
2018-09-01T08:07:11.846Z,5.27
2018-09-01T08:09:41.280Z,5.90
2018-09-01T08:12:10.747Z,7.60
2018-09-01T08:14:45.195Z,5.40
2018-09-01T08:17:14.195Z,5.77
2018-09-01T08:19:50.154Z,7.00
2018-09-01T08:22:19.289Z,5.53
2018-09-01T08:24:48.783Z,5.60
2018-09-01T08:27:17.852Z,7.83
2018-09-01T08:29:49.149Z,10.13
2018-09-01T08:32:20.844Z,10.50
2018-09-01T08:34:55.175Z,11.80
2018-09-01T08:37:29.225Z,11.87
2018-09-01T08:39:58.546Z,10.80
2018-09-01T08:42:28.963Z,11.90
2018-09-01T08:44:58.291Z,11.63
2018-09-01T08:47:27.206Z,9.60
2018-09-01T08:49:56.504Z,10.30
2018-09-01T08:52:25.778Z,7.73
2018-09-01T08:54:54.737Z,8.20
2018-09-01T08:57:24.411Z,9.97
2018-09-01T08:59:53.326Z,7.57
2018-09-01T09:02:22.701Z,8.00
2018-09-01T09:04:52.093Z,6.87
2018-09-01T09:07:21.610Z,6.43
2018-09-01T09:09:51.087Z,10.77
2018-09-01T09:12:20.823Z,12.60
2018-09-01T09:14:49.850Z,10.90
2018-09-01T09:17:19.429Z,9.70
2018-09-01T09:19:48.422Z,8.43
2018-09-01T09:22:17.719Z,6.03
2018-09-01T09:24:47.083Z,7.27
2018-09-01T09:27:16.611Z,11.23
2018-09-01T09:29:46.227Z,7.97
2018-09-01T09:32:15.533Z,4.83
2018-09-01T09:34:44.588Z,5.65
2018-09-01T09:37:14.168Z,6.45
2018-09-01T09:39:44.750Z,5.00
2018-09-01T09:42:14.335Z,9.48
2018-09-01T09:44:43.879Z,6.58
2018-09-01T09:47:12.942Z,5.30
2018-09-01T09:49:42.218Z,6.53
2018-09-01T09:52:11.195Z,5.97
2018-09-01T09:54:40.701Z,5.50
2018-09-01T09:57:12.478Z,6.05
2018-09-01T09:59:42.495Z,5.33
2018-09-01T10:02:12.060Z,6.87
2018-09-01T10:04:41.743Z,8.10
2018-09-01T10:07:11.131Z,5.55
2018-09-01T10:09:41.774Z,6.90
2018-09-01T10:12:11.314Z,7.35
2018-09-01T10:14:40.740Z,6.08
2018-09-01T10:17:10.485Z,9.73
2018-09-01T10:19:40.129Z,6.95
2018-09-01T10:22:09.766Z,6.75
2018-09-01T10:24:39.729Z,6.10
2018-09-01T10:27:09.513Z,5.75
2018-09-01T10:29:39.302Z,9.45
2018-09-01T10:32:08.819Z,6.58
2018-09-01T10:34:38.580Z,5.90
2018-09-01T10:37:08.681Z,6.87
2018-09-01T10:39:38.189Z,6.75
2018-09-01T10:42:07.805Z,6.08
2018-09-01T10:44:37.739Z,6.15
2018-09-01T10:47:07.299Z,6.53
2018-09-01T10:49:38.580Z,6.67
2018-09-01T10:52:08.824Z,7.25
2018-09-01T10:54:38.269Z,6.90
2018-09-01T10:57:07.950Z,6.45
2018-09-01T10:59:38.428Z,6.28
2018-09-01T11:02:07.861Z,6.90
2018-09-01T11:04:37.795Z,5.65
2018-09-01T11:07:07.878Z,6.42
2018-09-01T11:09:36.992Z,5.75
2018-09-01T11:12:06.378Z,5.65
2018-09-01T11:14:36.618Z,6.10
2018-09-01T11:17:06.432Z,5.85
2018-09-01T11:19:36.431Z,6.47
2018-09-01T11:22:06.775Z,5.37
2018-09-01T11:24:37.007Z,6.80
2018-09-01T11:27:07.841Z,5.65
2018-09-01T11:29:48.812Z,6.35
2018-09-01T11:32:18.443Z,9.15
2018-09-01T11:34:48.603Z,11.20
2018-09-01T11:37:18.160Z,7.45
2018-09-01T11:39:47.542Z,10.13
2018-09-01T11:42:17.131Z,12.88
2018-09-01T11:44:46.541Z,8.33
2018-09-01T11:47:17.026Z,6.62
2018-09-01T11:49:46.104Z,9.38
2018-09-01T11:52:17.659Z,8.13
2018-09-01T11:54:47.938Z,8.38
2018-09-01T11:57:21.428Z,7.78
2018-09-01T11:59:53.682Z,6.83
2018-09-01T12:02:23.672Z,6.03
2018-09-01T12:04:55.491Z,7.12
2018-09-01T12:07:26.384Z,6.95
2018-09-01T12:09:56.456Z,6.67
2018-09-01T12:12:26.063Z,6.00
2018-09-01T12:14:55.659Z,5.87
2018-09-01T12:17:25.744Z,7.62
2018-09-01T12:19:56.364Z,5.20
2018-09-01T12:22:26.448Z,7.55
2018-09-01T12:24:56.385Z,7.72
2018-09-01T12:27:26.201Z,7.53
2018-09-01T12:29:56.301Z,6.22
2018-09-01T12:32:27.329Z,6.55
2018-09-01T12:34:57.412Z,6.62
2018-09-01T12:37:27.556Z,5.90
2018-09-01T12:39:57.276Z,6.42
2018-09-01T12:42:26.984Z,7.12
2018-09-01T12:44:57.968Z,5.15
2018-09-01T12:47:29.474Z,8.43
2018-09-01T12:49:59.095Z,7.90
2018-09-01T12:52:28.968Z,4.90
2018-09-01T12:54:58.656Z,4.40
2018-09-01T12:57:30.705Z,4.50
2018-09-01T13:00:00.096Z,5.72
2018-09-01T13:02:29.495Z,6.30
2018-09-01T13:04:58.732Z,7.17
2018-09-01T13:07:27.817Z,6.12
2018-09-01T13:09:56.964Z,4.20
2018-09-01T13:12:26.120Z,4.58
2018-09-01T13:14:55.410Z,5.15
2018-09-01T13:17:27.784Z,4.87
2018-09-01T13:19:57.607Z,5.78
2018-09-01T13:22:26.760Z,4.35
2018-09-01T13:24:56.295Z,4.62
2018-09-01T13:27:25.481Z,5.75
2018-09-01T13:29:54.672Z,5.87
2018-09-01T13:32:23.850Z,6.08
2018-09-01T13:34:56.565Z,7.12
2018-09-01T13:37:25.676Z,4.22
2018-09-01T13:39:55.235Z,4.80
2018-09-01T13:42:26.352Z,4.72
2018-09-01T13:44:55.878Z,5.67
2018-09-01T13:47:25.637Z,4.25
2018-09-01T13:49:55.676Z,5.92
2018-09-01T13:52:25.849Z,4.15
2018-09-01T13:54:55.513Z,4.20
2018-09-01T13:57:26.397Z,4.08
2018-09-01T13:59:56.686Z,4.45
2018-09-01T14:02:29.934Z,4.33
2018-09-01T14:04:59.834Z,4.42
2018-09-01T14:07:29.475Z,4.42
2018-09-01T14:09:59.745Z,4.42
2018-09-01T14:12:29.867Z,4.05
2018-09-01T14:15:00.664Z,4.75
2018-09-01T14:17:30.303Z,3.90
2018-09-01T14:20:31.649Z,4.42
2018-09-01T14:23:01.314Z,3.98
2018-09-01T14:25:31.175Z,4.92
2018-09-01T14:28:01.294Z,4.47
2018-09-01T14:30:30.711Z,4.03
2018-09-01T14:33:00.463Z,5.62
2018-09-01T14:35:36.746Z,6.05
2018-09-01T14:38:07.941Z,4.15
2018-09-01T14:40:37.460Z,4.20
2018-09-01T14:43:07.013Z,5.55
2018-09-01T14:45:36.159Z,4.42
2018-09-01T14:48:05.671Z,4.47
2018-09-01T14:50:35.016Z,4.30
2018-09-01T14:53:04.137Z,5.20
2018-09-01T14:55:34.150Z,11.68
2018-09-01T14:58:04.060Z,5.58
2018-09-01T15:00:33.023Z,5.95
2018-09-01T15:03:02.052Z,5.65
2018-09-01T15:05:31.044Z,5.17
2018-09-01T15:08:00.036Z,5.85
2018-09-01T15:10:29.087Z,5.22
2018-09-01T15:12:58.194Z,5.25
2018-09-01T15:15:27.218Z,4.85
2018-09-01T15:17:56.285Z,6.45
2018-09-01T15:20:25.895Z,5.15
2018-09-01T15:22:55.669Z,5.53
2018-09-01T15:25:24.668Z,7.12
2018-09-01T15:27:53.665Z,6.70
2018-09-01T15:30:22.680Z,5.67
2018-09-01T15:32:52.112Z,6.12
2018-09-01T15:35:21.534Z,7.12
2018-09-01T15:37:50.718Z,7.22
2018-09-01T15:40:19.722Z,5.97
2018-09-01T15:42:49.022Z,19.82
2018-09-01T15:45:17.935Z,27.85
2018-09-01T15:47:47.478Z,19.82
2018-09-01T15:50:16.438Z,16.07
2018-09-01T15:52:45.675Z,13.25
2018-09-01T15:55:14.652Z,13.68
2018-09-01T15:57:43.558Z,7.60
2018-09-01T16:00:12.585Z,9.33
2018-09-01T16:02:41.803Z,8.90
2018-09-01T16:05:11.037Z,9.13
2018-09-01T16:07:40.176Z,12.33
2018-09-01T16:10:11.930Z,13.45
2018-09-01T16:12:40.975Z,13.25
2018-09-01T16:15:09.971Z,12.20
2018-09-01T16:17:39.529Z,10.32
2018-09-01T16:20:08.879Z,20.48
2018-09-01T16:22:37.899Z,11.93
2018-09-01T16:25:06.903Z,9.03
2018-09-01T16:27:36.182Z,9.40
2018-09-01T16:30:06.307Z,7.97
2018-09-01T16:32:35.239Z,8.35
2018-09-01T16:35:05.011Z,9.45
2018-09-01T16:37:34.056Z,9.25
2018-09-01T16:40:03.020Z,8.33
2018-09-01T16:42:32.788Z,8.73
2018-09-01T16:45:01.795Z,9.63
2018-09-01T16:47:30.770Z,8.15
2018-09-01T16:50:30.280Z,8.10
2018-09-01T16:56:00.552Z,10.30
2018-09-01T16:58:30.083Z,10.82
2018-09-01T17:00:59.487Z,8.48
2018-09-01T17:03:28.410Z,8.80
2018-09-01T17:05:57.390Z,9.23
2018-09-01T17:08:26.949Z,9.50
2018-09-01T17:10:55.967Z,7.65
2018-09-01T17:13:25.223Z,9.78
2018-09-01T17:15:54.202Z,8.83
2018-09-01T17:18:23.165Z,10.75
2018-09-01T17:20:52.209Z,10.30
2018-09-01T17:23:21.439Z,13.55
2018-09-01T17:25:50.510Z,9.28
2018-09-01T17:28:19.515Z,9.13
2018-09-01T17:30:50.944Z,8.20
2018-09-01T17:33:20.159Z,8.10
2018-09-01T17:35:51.466Z,7.20
2018-09-01T17:38:20.421Z,7.15
2018-09-01T17:40:49.534Z,6.80
2018-09-01T17:43:18.513Z,7.03
2018-09-01T17:45:47.855Z,7.17
2018-09-01T17:48:17.110Z,7.00
2018-09-01T17:50:46.142Z,7.35
2018-09-01T17:53:15.188Z,8.50
2018-09-01T17:55:44.802Z,8.50
2018-09-01T17:58:13.872Z,7.80
2018-09-01T18:00:43.182Z,7.87
2018-09-01T18:03:12.366Z,9.25
2018-09-01T18:05:41.322Z,7.50
2018-09-01T18:08:10.451Z,9.33
2018-09-01T18:10:39.437Z,7.87
2018-09-01T18:13:08.403Z,8.08
2018-09-01T18:15:37.746Z,8.13
2018-09-01T18:18:06.807Z,8.13
2018-09-01T18:20:35.991Z,9.03
2018-09-01T18:23:05.506Z,9.13
2018-09-01T18:25:34.539Z,9.00
2018-09-01T18:28:03.972Z,8.30
2018-09-01T18:30:32.958Z,7.85
2018-09-01T18:33:01.929Z,9.17
2018-09-01T18:35:30.886Z,8.43
2018-09-01T18:38:00.775Z,9.40
2018-09-01T18:40:29.719Z,9.67
2018-09-01T18:42:58.687Z,8.17
2018-09-01T18:45:27.703Z,8.47
2018-09-01T18:47:56.664Z,8.90
2018-09-01T18:50:25.839Z,8.23
2018-09-01T18:52:54.834Z,7.67
2018-09-01T18:55:23.955Z,8.20
2018-09-01T18:57:52.881Z,9.23
2018-09-01T19:00:21.796Z,11.27
2018-09-01T19:02:50.875Z,12.50
2018-09-01T19:05:20.422Z,9.13
2018-09-01T19:07:49.845Z,8.07
2018-09-01T19:10:19.061Z,10.43
2018-09-01T19:12:50.211Z,10.03
2018-09-01T19:15:20.067Z,8.77
2018-09-01T19:17:50.362Z,9.48
2018-09-01T19:20:19.345Z,11.00
2018-09-01T19:22:48.577Z,11.90
2018-09-01T19:25:17.642Z,7.77
2018-09-01T19:27:46.738Z,9.60
2018-09-01T19:30:15.890Z,11.40
2018-09-01T19:32:45.337Z,9.35
2018-09-01T19:35:15.402Z,9.97
2018-09-01T19:37:44.693Z,11.87
2018-09-01T19:40:13.996Z,13.43
2018-09-01T19:42:43.202Z,14.53
2018-09-01T19:45:12.221Z,14.57
2018-09-01T19:47:41.283Z,16.37
2018-09-01T19:50:10.581Z,12.90
2018-09-01T19:52:39.672Z,12.33
2018-09-01T19:55:08.779Z,13.30
2018-09-01T19:57:37.763Z,11.10
2018-09-01T20:00:07.457Z,12.07
2018-09-01T20:02:36.519Z,12.30
2018-09-01T20:05:05.665Z,11.77
2018-09-01T20:07:34.635Z,11.70
2018-09-01T20:10:03.663Z,11.67
2018-09-01T20:12:32.680Z,10.43
2018-09-01T20:15:01.651Z,10.97
2018-09-01T20:17:30.595Z,9.73
2018-09-01T20:19:59.593Z,10.40
2018-09-01T20:22:28.570Z,10.10
2018-09-01T20:24:57.563Z,9.03
2018-09-01T20:27:26.474Z,9.43
2018-09-01T20:29:57.368Z,11.33
2018-09-01T20:32:26.370Z,11.57
2018-09-01T20:34:59.555Z,11.53
2018-09-01T20:37:28.504Z,8.70
2018-09-01T20:39:57.435Z,10.47
2018-09-01T20:42:27.941Z,10.83
2018-09-01T20:45:03.510Z,11.67
2018-09-01T20:47:40.198Z,12.20
2018-09-01T20:50:09.168Z,10.43
2018-09-01T20:52:38.378Z,11.25
2018-09-01T20:55:07.918Z,12.10
2018-09-01T20:57:37.769Z,12.37
2018-09-01T21:00:06.827Z,15.20
2018-09-01T21:02:36.582Z,11.90
2018-09-01T21:05:06.354Z,12.50
2018-09-01T21:07:45.315Z,11.60
2018-09-01T21:10:19.922Z,10.47
2018-09-01T21:12:48.894Z,9.97
2018-09-01T21:15:18.437Z,9.63
2018-09-01T21:17:49.336Z,10.87
2018-09-01T21:20:21.206Z,9.50
2018-09-01T21:22:51.136Z,8.53
2018-09-01T21:25:21.334Z,9.13
2018-09-01T21:27:50.831Z,7.67
2018-09-01T21:30:20.691Z,8.37
2018-09-01T21:32:50.299Z,8.00
2018-09-01T21:35:20.461Z,7.53
2018-09-01T21:37:50.437Z,7.37
2018-09-01T21:40:20.514Z,6.57
2018-09-01T21:42:50.033Z,6.97
2018-09-01T21:45:19.565Z,8.10
2018-09-01T21:47:50.340Z,6.33
2018-09-01T21:50:20.783Z,7.70
2018-09-01T21:52:50.190Z,6.90
2018-09-01T21:55:19.614Z,6.50
2018-09-01T21:57:49.354Z,6.67
2018-09-01T22:00:18.942Z,9.00
2018-09-01T22:02:48.475Z,7.93
2018-09-01T22:05:19.661Z,6.63
2018-09-01T22:07:49.214Z,8.03
2018-09-01T22:10:19.025Z,8.77
2018-09-01T22:12:48.391Z,10.13
2018-09-01T22:15:17.670Z,7.87
2018-09-01T22:17:47.289Z,8.57
2018-09-01T22:20:16.854Z,8.17
2018-09-01T22:22:46.060Z,11.73
2018-09-01T22:25:15.228Z,8.53
2018-09-01T22:27:44.187Z,9.07
2018-09-01T22:30:13.441Z,7.63
2018-09-01T22:32:42.744Z,7.97
2018-09-01T22:35:11.806Z,9.20
2018-09-01T22:37:44.682Z,8.33
2018-09-01T22:40:15.226Z,9.20
2018-09-01T22:42:44.558Z,11.53
2018-09-01T22:45:16.876Z,9.90
2018-09-01T22:47:46.547Z,10.53
2018-09-01T22:50:16.739Z,9.83
2018-09-01T22:52:46.818Z,10.57
2018-09-01T22:55:16.014Z,9.90
2018-09-01T22:57:44.974Z,11.83
2018-09-01T23:00:14.860Z,12.50
2018-09-01T23:02:44.043Z,10.20
2018-09-01T23:05:13.630Z,10.95
2018-09-01T23:07:42.882Z,9.07
2018-09-01T23:10:12.369Z,13.30
2018-09-01T23:12:41.700Z,10.50
2018-09-01T23:15:11.586Z,13.63
2018-09-01T23:17:40.603Z,13.23
2018-09-01T23:20:09.942Z,14.27
2018-09-01T23:22:39.485Z,11.57
2018-09-01T23:25:08.954Z,10.00
2018-09-01T23:27:38.397Z,11.03
2018-09-01T23:30:08.002Z,14.27
2018-09-01T23:32:37.608Z,13.60
2018-09-01T23:35:06.770Z,11.73
2018-09-01T23:37:36.517Z,11.80
2018-09-01T23:40:05.874Z,14.10
2018-09-01T23:42:35.143Z,13.40
2018-09-01T23:45:04.725Z,11.70
2018-09-01T23:47:34.294Z,10.87
2018-09-01T23:50:04.247Z,12.13
2018-09-01T23:52:33.318Z,10.23
2018-09-01T23:55:02.850Z,10.67
2018-09-01T23:57:32.418Z,11.30
